Overview Statistics Trail Chart Weather Telemetry Raw packets
 

This is the latest recevied weather packets stored in our database for station/object EA3CH. If no packets are shown the sender has not sent any weather packets the latest 10 day(s).

<< 43 44 45 46 47 48 49 >>
Time Temp. Humidity Pressure Rain* Wind** Luminosity Snow
1787786106 20.56° C 79% 1015.1 hPa 0 mm - 0 W/m² -
1787786104 20.56° C 88% 1015.3 hPa 0 mm - 0 W/m² -
1787785204 20° C 88% 1015.1 hPa 0 mm - 0 W/m² -
1787784303 20° C 91% 1014.8 hPa 0 mm - 0 W/m² -
1787783405 20.56° C 79% 1014.6 hPa 0 mm - 0 W/m² -
1787783404 20° C 90% 1014.8 hPa 0 mm - 0 W/m² -
1787782504 20° C 91% 1014.7 hPa 0 mm - 0 W/m² -
1787782504 21.11° C 79% 1014.5 hPa 0 mm - 0 W/m² -
1787781606 21.11° C 80% 1014.6 hPa 0 mm - 0 W/m² -
1787781605 20° C 91% 1014.8 hPa 0 mm - 0 W/m² -
1787780704 20° C 91% 1014.7 hPa 0 mm - 0 W/m² -
1787779809 21.11° C 78% 1014.6 hPa 0 mm - 0 W/m² -
1787779808 20.56° C 90% 1014.8 hPa 0 mm - 0 W/m² -
1787778904 21.67° C 78% 1014.5 hPa 0 mm - 0 W/m² -
1787778904 20.56° C 89% 1014.7 hPa 0 mm - 0 W/m² -
1787778006 21.11° C 87% 1014.7 hPa 0 mm - 0 W/m² -
1787778006 21.67° C 77% 1014.5 hPa 0 mm - 0 W/m² -
1787777105 21.67° C 76% 1014.6 hPa 0 mm - 0 W/m² -
1787777103 21.11° C 86% 1014.8 hPa 0 mm - 0 W/m² -
1787776204 21.67° C 84% 1014.8 hPa 0 mm - 0 W/m² -
1787775305 22.22° C 73% 1014.3 hPa 0 mm - 0 W/m² -
1787775304 21.67° C 84% 1014.5 hPa 0 mm - 0 W/m² -
1787774407 22.22° C 81% 1014.6 hPa 0 mm - 0 W/m² -
1787773505 23.33° C 68% 1014.3 hPa 0 mm - 0 W/m² -
1787773504 22.22° C 78% 1014.5 hPa 0 mm - 0 W/m² -

* Rain latest hour (hover to see other rain measurements)
** Current wind speed in m/s (hover to see current wind gust speed)